createdAt,value
2023-01-10T00:00:46.751Z,24.48
2023-01-10T00:03:28.615Z,24.45
2023-01-10T00:05:55.489Z,22.83
2023-01-10T00:08:23.047Z,24.15
2023-01-10T00:10:50.274Z,23.13
2023-01-10T00:13:24.429Z,24.27
2023-01-10T00:15:56.080Z,24.33
2023-01-10T00:18:23.284Z,24.70
2023-01-10T00:20:50.469Z,25.55
2023-01-10T00:23:18.524Z,24.77
2023-01-10T00:25:46.374Z,25.88
2023-01-10T00:28:19.472Z,27.00
2023-01-10T00:31:01.525Z,27.33
2023-01-10T00:33:32.091Z,25.52
2023-01-10T00:36:00.440Z,26.73
2023-01-10T00:38:28.752Z,26.75
2023-01-10T00:40:55.636Z,27.02
2023-01-10T00:43:41.451Z,23.98
2023-01-10T00:46:09.838Z,26.17
2023-01-10T00:48:37.663Z,25.27
2023-01-10T00:51:05.359Z,28.45
2023-01-10T00:53:32.690Z,29.17
2023-01-10T00:55:59.586Z,25.85
2023-01-10T00:58:26.949Z,26.38
2023-01-10T01:00:53.840Z,27.50
2023-01-10T01:03:23.338Z,26.35
2023-01-10T01:05:50.711Z,26.30
2023-01-10T01:08:19.248Z,27.48
2023-01-10T01:10:46.564Z,28.90
2023-01-10T01:13:20.089Z,28.83
2023-01-10T01:15:48.498Z,29.25
2023-01-10T01:18:19.080Z,28.45
2023-01-10T01:20:45.959Z,28.95
2023-01-10T01:23:14.532Z,29.55
2023-01-10T01:25:42.022Z,30.58
2023-01-10T01:28:12.729Z,29.05
2023-01-10T01:30:39.994Z,31.40
2023-01-10T01:33:07.863Z,29.25
2023-01-10T01:35:35.166Z,30.58
2023-01-10T01:38:02.504Z,28.98
2023-01-10T01:40:29.807Z,30.50
2023-01-10T01:42:57.037Z,28.08
2023-01-10T01:45:23.928Z,30.05
2023-01-10T01:47:59.457Z,31.00
2023-01-10T01:50:43.762Z,28.27
2023-01-10T01:53:20.946Z,29.42
2023-01-10T01:55:49.183Z,29.10
2023-01-10T01:58:20.396Z,29.25
2023-01-10T02:00:47.379Z,31.83
2023-01-10T02:03:15.412Z,29.77
2023-01-10T02:05:44.138Z,29.83
2023-01-10T02:08:13.361Z,28.98
2023-01-10T02:11:06.175Z,29.08
2023-01-10T02:13:35.156Z,31.75
2023-01-10T02:16:02.031Z,29.70
2023-01-10T02:18:29.365Z,31.15
2023-01-10T02:21:18.287Z,30.63
2023-01-10T02:24:04.201Z,33.95
2023-01-10T02:26:59.285Z,32.92
2023-01-10T02:29:40.131Z,31.45
2023-01-10T02:32:13.039Z,30.00
2023-01-10T02:35:07.424Z,33.10
2023-01-10T02:37:51.357Z,32.42
2023-01-10T02:40:47.516Z,32.72
2023-01-10T02:43:19.502Z,31.23
2023-01-10T02:45:52.417Z,30.42
2023-01-10T02:48:19.463Z,31.92
2023-01-10T02:51:08.557Z,32.28
2023-01-10T02:53:41.396Z,31.73
2023-01-10T02:56:20.739Z,32.40
2023-01-10T02:59:06.518Z,33.47
2023-01-10T03:01:58.164Z,32.72
2023-01-10T03:04:26.120Z,30.35
2023-01-10T03:06:59.449Z,32.20
2023-01-10T03:09:35.289Z,32.20
2023-01-10T03:12:14.627Z,31.83
2023-01-10T03:14:45.216Z,30.30
2023-01-10T03:17:14.927Z,32.38
2023-01-10T03:19:47.281Z,31.67
2023-01-10T03:22:15.106Z,31.83
2023-01-10T03:24:51.656Z,31.02
2023-01-10T03:27:19.259Z,31.13
2023-01-10T03:29:54.941Z,30.80
2023-01-10T03:32:27.722Z,29.83
2023-01-10T03:34:56.043Z,30.92
2023-01-10T03:37:42.394Z,29.58
2023-01-10T03:40:28.709Z,28.20
2023-01-10T03:43:20.658Z,29.02
2023-01-10T03:46:38.091Z,27.77
2023-01-10T03:49:08.111Z,28.05
2023-01-10T03:51:37.618Z,27.33
2023-01-10T03:54:05.296Z,26.08
2023-01-10T03:56:43.069Z,28.05
2023-01-10T03:59:10.497Z,26.60
2023-01-10T04:01:37.668Z,29.88
2023-01-10T04:04:05.183Z,26.88
2023-01-10T04:06:32.083Z,27.13
2023-01-10T04:08:59.291Z,25.23
2023-01-10T04:11:44.567Z,26.90
2023-01-10T04:14:11.787Z,27.58
2023-01-10T04:16:38.631Z,26.42
2023-01-10T04:19:06.063Z,25.77
2023-01-10T04:21:32.957Z,26.33
2023-01-10T04:24:00.299Z,26.10
2023-01-10T04:26:27.362Z,25.85
2023-01-10T04:28:54.589Z,26.80
2023-01-10T04:31:22.941Z,24.63
2023-01-10T04:33:50.136Z,25.55
2023-01-10T04:36:16.971Z,28.27
2023-01-10T04:38:44.172Z,25.10
2023-01-10T04:41:11.039Z,26.08
2023-01-10T04:43:38.192Z,26.17
2023-01-10T04:46:05.373Z,25.38
2023-01-10T04:48:33.661Z,25.38
2023-01-10T04:51:00.584Z,25.33
2023-01-10T04:53:27.855Z,25.92
2023-01-10T04:55:54.738Z,25.15
2023-01-10T04:58:21.921Z,25.02
2023-01-10T05:00:48.812Z,29.10
2023-01-10T05:03:20.194Z,28.48
2023-01-10T05:05:47.150Z,27.45
2023-01-10T05:08:15.417Z,29.15
2023-01-10T05:10:42.265Z,28.52
2023-01-10T05:13:09.399Z,29.10
2023-01-10T05:15:36.311Z,28.42
2023-01-10T05:18:03.596Z,27.42
2023-01-10T05:20:30.567Z,27.70
2023-01-10T05:22:57.838Z,28.25
2023-01-10T05:25:24.785Z,29.30
2023-01-10T05:27:52.012Z,27.48
2023-01-10T05:30:19.406Z,26.92
2023-01-10T05:32:46.617Z,29.10
2023-01-10T05:35:13.794Z,28.80
2023-01-10T05:37:41.035Z,30.50
2023-01-10T05:40:08.927Z,28.00
2023-01-10T05:42:36.226Z,27.80
2023-01-10T05:45:03.501Z,26.25
2023-01-10T05:47:30.742Z,28.88
2023-01-10T05:49:57.755Z,29.40
2023-01-10T05:52:24.903Z,26.88
2023-01-10T05:54:51.755Z,25.17
2023-01-10T05:57:19.255Z,24.02
2023-01-10T05:59:46.260Z,25.10
2023-01-10T06:02:13.563Z,25.38
2023-01-10T06:04:40.586Z,26.90
2023-01-10T06:07:07.863Z,28.33
2023-01-10T06:09:34.744Z,27.42
2023-01-10T06:12:02.259Z,25.95
2023-01-10T06:14:29.104Z,25.75
2023-01-10T06:16:57.211Z,25.83
2023-01-10T06:19:24.102Z,23.63
2023-01-10T06:21:51.326Z,24.95
2023-01-10T06:24:18.390Z,26.52
2023-01-10T06:26:45.720Z,24.23
2023-01-10T06:29:12.727Z,25.52
2023-01-10T06:31:40.128Z,26.98
2023-01-10T06:34:07.124Z,23.50
2023-01-10T06:36:34.304Z,25.50
2023-01-10T06:39:01.510Z,26.27
2023-01-10T06:41:28.766Z,24.48
2023-01-10T06:43:55.704Z,25.15
2023-01-10T06:46:23.146Z,26.10
2023-01-10T06:48:50.216Z,24.75
2023-01-10T06:51:20.056Z,25.05
2023-01-10T06:53:47.587Z,26.17
2023-01-10T06:56:14.997Z,27.20
2023-01-10T06:58:42.007Z,24.20
2023-01-10T07:01:18.468Z,26.77
2023-01-10T07:03:45.570Z,28.98
2023-01-10T07:06:12.910Z,26.48
2023-01-10T07:08:42.115Z,28.02
2023-01-10T07:11:10.811Z,28.88
2023-01-10T07:13:38.470Z,29.02
2023-01-10T07:16:14.117Z,27.83
2023-01-10T07:18:43.067Z,26.52
2023-01-10T07:21:11.621Z,25.52
2023-01-10T07:23:38.862Z,26.60
2023-01-10T07:26:09.000Z,26.92
2023-01-10T07:28:36.179Z,24.30
2023-01-10T07:31:05.818Z,25.80
2023-01-10T07:33:32.911Z,25.13
2023-01-10T07:36:01.237Z,23.92
2023-01-10T07:38:28.561Z,23.55
2023-01-10T07:40:55.904Z,25.60
2023-01-10T07:43:22.851Z,25.33
2023-01-10T07:45:50.068Z,25.80
2023-01-10T07:48:17.094Z,25.70
2023-01-10T07:50:44.361Z,24.23
2023-01-10T07:53:12.771Z,25.05
2023-01-10T07:55:40.190Z,26.88
2023-01-10T07:58:08.085Z,27.00
2023-01-10T08:00:35.898Z,26.65
2023-01-10T08:03:03.071Z,26.40
2023-01-10T08:05:30.965Z,26.67
2023-01-10T08:08:00.227Z,26.60
2023-01-10T08:10:27.867Z,28.02
2023-01-10T08:12:54.920Z,25.73
2023-01-10T08:15:22.216Z,26.92
2023-01-10T08:17:49.159Z,25.88
2023-01-10T08:20:16.512Z,27.08
2023-01-10T08:22:43.406Z,28.60
2023-01-10T08:25:10.937Z,27.77
2023-01-10T08:27:46.379Z,28.02
2023-01-10T08:30:14.334Z,27.02
2023-01-10T08:32:41.311Z,25.65
2023-01-10T08:35:09.385Z,27.70
2023-01-10T08:37:36.253Z,27.23
2023-01-10T08:40:04.058Z,27.15
2023-01-10T08:42:31.078Z,27.48
2023-01-10T08:45:00.377Z,28.00
2023-01-10T08:47:29.402Z,23.67
2023-01-10T08:49:56.729Z,24.80
2023-01-10T08:52:23.675Z,25.48
2023-01-10T08:54:51.028Z,24.67
2023-01-10T08:57:17.948Z,25.10
2023-01-10T08:59:45.163Z,24.45
2023-01-10T09:02:15.504Z,23.50
2023-01-10T09:04:42.869Z,25.23
2023-01-10T09:07:09.811Z,23.80
2023-01-10T09:09:37.141Z,24.42
2023-01-10T09:12:24.301Z,25.63
2023-01-10T09:14:51.671Z,24.92
2023-01-10T09:17:18.645Z,23.92
2023-01-10T09:19:45.894Z,26.48
2023-01-10T09:22:12.821Z,24.00
2023-01-10T09:24:41.853Z,26.00
2023-01-10T09:27:08.772Z,24.65
2023-01-10T09:29:35.923Z,25.40
2023-01-10T09:32:02.869Z,23.65
2023-01-10T09:34:30.212Z,24.65
2023-01-10T09:36:57.330Z,23.40
2023-01-10T09:39:25.634Z,23.42
2023-01-10T09:42:04.691Z,23.65
2023-01-10T09:44:57.600Z,23.90
2023-01-10T09:47:52.012Z,23.98
2023-01-10T09:50:36.275Z,23.40
2023-01-10T09:53:10.852Z,22.48
2023-01-10T09:55:39.160Z,23.05
2023-01-10T09:58:16.197Z,22.65
2023-01-10T10:00:57.434Z,22.52
2023-01-10T10:03:48.185Z,24.33
2023-01-10T10:06:15.684Z,24.95
2023-01-10T10:08:45.479Z,23.17
2023-01-10T10:11:28.240Z,23.60
2023-01-10T10:14:18.290Z,25.30
2023-01-10T10:17:03.631Z,25.15
2023-01-10T10:19:50.517Z,24.48
2023-01-10T10:22:42.767Z,25.60
2023-01-10T10:28:16.921Z,22.17
2023-01-10T10:31:00.110Z,24.63
2023-01-10T10:33:30.434Z,23.63
2023-01-10T10:36:09.642Z,23.52
2023-01-10T10:38:43.675Z,23.08
2023-01-10T10:41:19.615Z,21.55
2023-01-10T10:43:48.752Z,23.10
2023-01-10T10:46:20.106Z,23.40
2023-01-10T10:49:35.536Z,24.42
2023-01-10T10:52:09.462Z,23.92
2023-01-10T10:54:37.167Z,24.20
2023-01-10T10:57:04.274Z,22.00
2023-01-10T10:59:31.517Z,22.10
2023-01-10T11:01:58.678Z,23.33
2023-01-10T11:04:27.083Z,23.63
2023-01-10T11:06:54.694Z,25.67
2023-01-10T11:09:33.694Z,24.48
2023-01-10T11:12:01.172Z,24.73
2023-01-10T11:14:49.834Z,23.58
2023-01-10T11:17:26.028Z,24.58
2023-01-10T11:19:57.718Z,23.65
2023-01-10T11:22:26.338Z,24.58
2023-01-10T11:25:00.423Z,22.80
2023-01-10T11:27:32.739Z,22.23
2023-01-10T11:30:08.815Z,23.77
2023-01-10T11:32:40.249Z,22.92
2023-01-10T11:38:05.841Z,20.17
2023-01-10T11:40:36.327Z,23.15
2023-01-10T11:43:41.467Z,21.02
2023-01-10T11:46:21.729Z,20.02
2023-01-10T11:49:06.785Z,21.95
2023-01-10T11:51:40.575Z,20.73
2023-01-10T11:54:12.547Z,19.58
2023-01-10T11:56:41.650Z,18.65
2023-01-10T11:59:12.688Z,19.80
2023-01-10T12:01:45.019Z,19.05
2023-01-10T12:04:21.205Z,21.85
2023-01-10T12:06:52.186Z,19.25
2023-01-10T12:09:32.773Z,19.48
2023-01-10T12:12:26.333Z,22.45
2023-01-10T12:14:55.878Z,19.10
2023-01-10T12:17:30.159Z,20.25
2023-01-10T12:20:00.734Z,19.88
2023-01-10T12:22:35.864Z,20.75
2023-01-10T12:25:15.462Z,20.98
2023-01-10T12:27:44.753Z,17.65
2023-01-10T12:30:17.078Z,17.38
2023-01-10T12:32:52.207Z,19.95
2023-01-10T12:35:23.151Z,18.55
2023-01-10T12:37:56.192Z,19.50
2023-01-10T12:40:37.698Z,17.52
2023-01-10T12:43:47.997Z,17.85
2023-01-10T12:46:56.569Z,17.20
2023-01-10T12:49:43.466Z,17.70
2023-01-10T12:52:18.216Z,17.02
2023-01-10T12:54:47.294Z,17.83
2023-01-10T12:57:39.705Z,17.17
2023-01-10T13:00:15.631Z,18.63
2023-01-10T13:02:46.446Z,16.85
2023-01-10T13:05:27.527Z,20.08
2023-01-10T13:08:12.481Z,18.75
2023-01-10T13:10:47.419Z,18.38
2023-01-10T13:13:29.557Z,17.23
2023-01-10T13:16:15.590Z,20.10
2023-01-10T13:19:11.883Z,18.40
2023-01-10T13:21:41.110Z,21.30
2023-01-10T13:24:28.988Z,19.52
2023-01-10T13:27:02.133Z,19.92
2023-01-10T13:29:40.819Z,19.17
2023-01-10T13:32:25.081Z,18.75
2023-01-10T13:34:52.768Z,18.70
2023-01-10T13:37:31.360Z,19.60
2023-01-10T13:40:00.665Z,20.35
2023-01-10T13:42:49.578Z,19.92
2023-01-10T13:45:21.245Z,20.60
2023-01-10T13:47:52.913Z,21.08
2023-01-10T13:50:28.905Z,20.10
2023-01-10T13:53:06.952Z,20.75
2023-01-10T13:55:53.931Z,19.45
2023-01-10T13:58:43.038Z,20.60
2023-01-10T14:01:49.217Z,21.08
2023-01-10T14:04:24.175Z,18.98
2023-01-10T14:06:54.201Z,19.25
2023-01-10T14:09:21.472Z,20.02
2023-01-10T14:11:58.464Z,19.17
2023-01-10T14:14:33.386Z,21.27
2023-01-10T14:17:28.280Z,19.08
2023-01-10T14:20:21.006Z,20.63
2023-01-10T14:22:58.751Z,19.60
2023-01-10T14:25:27.616Z,20.45
2023-01-10T14:27:56.461Z,20.05
2023-01-10T14:30:38.007Z,21.23
2023-01-10T14:33:14.024Z,19.55
2023-01-10T14:35:46.704Z,19.55
2023-01-10T14:38:29.879Z,19.50
2023-01-10T14:41:13.680Z,18.95
2023-01-10T14:43:53.510Z,20.50
2023-01-10T14:46:28.894Z,18.52
2023-01-10T14:49:00.677Z,18.75
2023-01-10T14:51:30.786Z,19.75
2023-01-10T14:54:04.771Z,18.05
2023-01-10T14:56:47.152Z,17.05
2023-01-10T14:59:28.478Z,18.23
2023-01-10T15:02:02.820Z,17.38
2023-01-10T15:04:33.378Z,15.45
2023-01-10T15:07:05.337Z,16.97
2023-01-10T15:12:03.001Z,14.80
2023-01-10T15:14:32.162Z,15.43
2023-01-10T15:17:02.573Z,15.18
2023-01-10T15:19:38.345Z,15.45
2023-01-10T15:22:38.292Z,14.73
2023-01-10T15:25:28.557Z,14.38
2023-01-10T15:27:58.040Z,13.65
2023-01-10T15:30:31.146Z,14.27
2023-01-10T15:33:07.726Z,14.15
2023-01-10T15:35:37.165Z,15.10
2023-01-10T15:38:12.399Z,16.08
2023-01-10T15:40:41.068Z,14.20
2023-01-10T15:43:11.445Z,15.43
2023-01-10T15:45:40.014Z,14.68
2023-01-10T15:48:27.522Z,15.75
2023-01-10T15:51:14.985Z,14.77
2023-01-10T15:54:04.856Z,14.27
2023-01-10T15:56:41.015Z,14.57
2023-01-10T15:59:22.379Z,16.23
2023-01-10T16:02:27.108Z,16.33
2023-01-10T16:04:58.000Z,16.35
2023-01-10T16:07:31.314Z,17.60
2023-01-10T16:10:15.534Z,19.15
2023-01-10T16:13:02.089Z,18.73
2023-01-10T16:15:35.621Z,18.60
2023-01-10T16:18:02.655Z,17.73
2023-01-10T16:20:35.276Z,19.58
2023-01-10T16:23:05.206Z,18.08
2023-01-10T16:25:35.324Z,17.75
2023-01-10T16:28:02.842Z,18.85
2023-01-10T16:30:32.913Z,18.02
2023-01-10T16:33:17.648Z,18.02
2023-01-10T16:35:46.696Z,18.92
2023-01-10T16:38:15.764Z,17.25
2023-01-10T16:40:57.285Z,18.30
2023-01-10T16:43:27.123Z,17.33
2023-01-10T16:45:55.062Z,20.23
2023-01-10T16:48:22.199Z,17.35
2023-01-10T16:50:49.435Z,17.67
2023-01-10T16:53:18.460Z,17.80
2023-01-10T16:55:53.489Z,16.73
2023-01-10T16:58:21.200Z,17.90
2023-01-10T17:00:51.523Z,19.27
2023-01-10T17:03:23.762Z,18.38
2023-01-10T17:05:51.931Z,19.40
2023-01-10T17:08:21.837Z,19.38
2023-01-10T17:10:52.520Z,19.50
2023-01-10T17:13:26.368Z,20.42
2023-01-10T17:15:53.592Z,18.13
2023-01-10T17:18:20.580Z,19.38
2023-01-10T17:20:47.964Z,18.88
2023-01-10T17:23:15.741Z,19.17
2023-01-10T17:25:43.064Z,18.52
2023-01-10T17:28:11.731Z,18.65
2023-01-10T17:30:40.407Z,18.83
2023-01-10T17:33:10.967Z,19.88
2023-01-10T17:35:42.543Z,19.48
2023-01-10T17:38:12.059Z,19.45
2023-01-10T17:40:41.270Z,18.52
2023-01-10T17:43:09.138Z,19.52
2023-01-10T17:45:39.988Z,19.45
2023-01-10T17:48:07.467Z,19.83
2023-01-10T17:50:35.540Z,17.02
2023-01-10T17:53:02.528Z,20.00
2023-01-10T17:55:29.983Z,18.98
2023-01-10T17:57:57.122Z,18.58
2023-01-10T18:00:24.931Z,18.15
2023-01-10T18:02:52.026Z,19.02
2023-01-10T18:05:19.428Z,18.13
2023-01-10T18:07:46.694Z,17.40
2023-01-10T18:10:13.916Z,17.98
2023-01-10T18:12:40.812Z,17.08
2023-01-10T18:15:08.647Z,17.17
2023-01-10T18:17:35.759Z,17.05
2023-01-10T18:20:03.643Z,17.02
2023-01-10T18:22:49.161Z,17.35
2023-01-10T18:25:17.568Z,16.67
2023-01-10T18:27:50.151Z,17.08
2023-01-10T18:30:21.769Z,17.30
2023-01-10T18:32:50.115Z,15.60
2023-01-10T18:35:17.945Z,16.40
2023-01-10T18:37:45.766Z,16.67
2023-01-10T18:40:13.921Z,16.48
2023-01-10T18:42:40.976Z,14.90
2023-01-10T18:45:08.697Z,16.58
2023-01-10T18:47:35.643Z,15.05
2023-01-10T18:50:02.935Z,14.65
2023-01-10T18:52:30.308Z,15.27
2023-01-10T18:54:57.542Z,15.23
2023-01-10T18:57:24.986Z,16.65
2023-01-10T18:59:52.204Z,16.00
2023-01-10T19:02:19.333Z,16.73
2023-01-10T19:04:46.842Z,15.77
2023-01-10T19:07:13.874Z,15.40
2023-01-10T19:09:41.064Z,16.05
2023-01-10T19:12:08.385Z,15.55
2023-01-10T19:14:35.649Z,15.57
2023-01-10T19:17:03.602Z,15.70
2023-01-10T19:19:30.907Z,15.38
2023-01-10T19:21:57.906Z,17.60
2023-01-10T19:24:27.750Z,16.45
2023-01-10T19:26:55.999Z,15.32
2023-01-10T19:29:23.987Z,14.80
2023-01-10T19:31:51.054Z,14.48
2023-01-10T19:34:18.627Z,15.68
2023-01-10T19:36:45.685Z,15.90
2023-01-10T19:39:13.954Z,15.43
2023-01-10T19:41:41.816Z,16.00
2023-01-10T19:44:13.597Z,14.88
2023-01-10T19:49:08.542Z,14.63
2023-01-10T19:51:37.936Z,14.45
2023-01-10T19:54:06.530Z,16.15
2023-01-10T19:56:34.775Z,15.48
2023-01-10T19:59:01.980Z,15.32
2023-01-10T20:01:31.265Z,15.45
2023-01-10T20:04:01.710Z,15.30
2023-01-10T20:06:30.986Z,14.85
2023-01-10T20:08:58.844Z,15.52
2023-01-10T20:11:27.497Z,16.92
2023-01-10T20:13:54.739Z,16.40
2023-01-10T20:16:23.512Z,15.90
2023-01-10T20:18:52.257Z,16.20
2023-01-10T20:21:20.376Z,17.35
2023-01-10T20:23:48.246Z,17.80
2023-01-10T20:26:18.814Z,18.20
2023-01-10T20:28:47.981Z,17.55
2023-01-10T20:31:23.468Z,19.23
2023-01-10T20:33:51.104Z,18.52
2023-01-10T20:36:21.022Z,18.80
2023-01-10T20:38:48.923Z,19.52
2023-01-10T20:41:19.713Z,20.90
2023-01-10T20:43:47.195Z,19.75
2023-01-10T20:46:17.235Z,22.33
2023-01-10T20:48:46.152Z,23.73
2023-01-10T20:51:16.139Z,22.90
2023-01-10T20:53:44.334Z,26.30
2023-01-10T20:56:15.016Z,26.00
2023-01-10T20:58:42.474Z,26.05
2023-01-10T21:01:10.568Z,27.88
2023-01-10T21:03:37.887Z,27.98
2023-01-10T21:06:05.095Z,29.67
2023-01-10T21:08:32.547Z,31.10
2023-01-10T21:10:59.433Z,34.85
2023-01-10T21:13:27.166Z,31.67
2023-01-10T21:15:56.760Z,31.10
2023-01-10T21:18:35.113Z,32.08
2023-01-10T21:21:02.048Z,29.75
2023-01-10T21:23:29.779Z,29.33
2023-01-10T21:26:03.109Z,29.48
2023-01-10T21:28:33.507Z,27.90
2023-01-10T21:31:00.473Z,28.02
2023-01-10T21:33:27.807Z,25.38
2023-01-10T21:35:57.881Z,28.50
2023-01-10T21:38:27.408Z,26.63
2023-01-10T21:40:55.689Z,26.05
2023-01-10T21:43:23.602Z,28.67
2023-01-10T21:45:50.675Z,27.27
2023-01-10T21:48:17.946Z,25.92
2023-01-10T21:50:48.319Z,27.98
2023-01-10T21:53:15.519Z,25.60
2023-01-10T21:55:44.064Z,28.30
2023-01-10T21:58:11.494Z,26.25
2023-01-10T22:00:38.472Z,26.35
2023-01-10T22:03:05.722Z,27.70
2023-01-10T22:05:32.725Z,27.15
2023-01-10T22:08:00.025Z,25.08
2023-01-10T22:10:27.003Z,26.92
2023-01-10T22:12:54.294Z,23.88
2023-01-10T22:15:21.181Z,23.80
2023-01-10T22:17:48.494Z,25.20
2023-01-10T22:20:16.921Z,26.65
2023-01-10T22:22:44.108Z,24.23
2023-01-10T22:25:11.039Z,23.92
2023-01-10T22:27:38.222Z,24.27
2023-01-10T22:30:05.837Z,24.25
2023-01-10T22:32:33.025Z,24.73
2023-01-10T22:35:00.094Z,22.70
2023-01-10T22:37:27.265Z,22.15
2023-01-10T22:39:54.187Z,24.45
2023-01-10T22:42:21.339Z,21.98
2023-01-10T22:44:48.271Z,20.98
2023-01-10T22:47:15.557Z,19.70
2023-01-10T22:49:42.547Z,19.83
2023-01-10T22:52:11.342Z,19.25
2023-01-10T22:54:38.257Z,18.15
2023-01-10T22:57:05.511Z,18.35
2023-01-10T22:59:42.366Z,19.13
2023-01-10T23:02:09.606Z,19.05
2023-01-10T23:04:36.477Z,22.15
2023-01-10T23:07:03.669Z,22.20
2023-01-10T23:09:30.982Z,20.25
2023-01-10T23:11:58.215Z,21.77
2023-01-10T23:14:25.220Z,20.13
2023-01-10T23:16:52.465Z,19.08
2023-01-10T23:19:19.381Z,20.92
2023-01-10T23:21:46.607Z,21.40
2023-01-10T23:24:15.024Z,21.88
2023-01-10T23:26:42.230Z,20.42
2023-01-10T23:29:09.108Z,22.40
2023-01-10T23:31:36.324Z,22.25
2023-01-10T23:34:03.249Z,25.00
2023-01-10T23:36:30.714Z,24.70
2023-01-10T23:38:58.174Z,23.92
2023-01-10T23:41:25.389Z,25.10
2023-01-10T23:43:52.303Z,24.95
2023-01-10T23:46:20.211Z,25.15
2023-01-10T23:48:48.491Z,25.75
2023-01-10T23:51:16.345Z,23.27
2023-01-10T23:53:43.335Z,24.10
2023-01-10T23:56:13.030Z,24.90
2023-01-10T23:58:40.953Z,22.67
